Goudge, Argentina
Current Conditions -  °F | °C
As of 7:00 AM on Sunday 23 Nov 2014 (Local Time) from SAME Reporting Station
Clear Clear  
Wind Chill: 64°   Ceiling: Unl
Heat Index: 64°   Visibility: 6mi
Dew Point: 45°   Wind: 0mph
Humidity: 49%   Direction: NA
Pressure: 29.77"   Gusts: NA
Location:  34.67°S, 68.13°W
Report Text: SAME 231000Z 00000KT CAVOK 18/07 Q1008
Loading
Personal Weather Stations






























Interactive Weather Map New forecast layout! Learn more

10-Day Weather Forecast

Advertisements
Track Severe Weather on mobile